sensor_id;sensor_type;location;lat;lon;timestamp;temperature;humidity
85164;DHT22;75530;49.300;6.846;2024-03-25T00:00:51;26.20;99.90
85164;DHT22;75530;49.300;6.846;2024-03-25T00:03:51;25.90;99.90
85164;DHT22;75530;49.300;6.846;2024-03-25T00:06:52;25.70;99.90
85164;DHT22;75530;49.300;6.846;2024-03-25T00:09:53;25.40;99.90
85164;DHT22;75530;49.300;6.846;2024-03-25T00:12:55;25.20;99.90
85164;DHT22;75530;49.300;6.846;2024-03-25T00:15:57;25.00;99.90
85164;DHT22;75530;49.300;6.846;2024-03-25T00:18:57;24.80;99.90
85164;DHT22;75530;49.300;6.846;2024-03-25T00:21:57;24.60;99.90
85164;DHT22;75530;49.300;6.846;2024-03-25T00:24:58;24.40;99.90
85164;DHT22;75530;49.300;6.846;2024-03-25T00:27:58;24.20;99.90
85164;DHT22;75530;49.300;6.846;2024-03-25T00:31:00;24.10;99.90
85164;DHT22;75530;49.300;6.846;2024-03-25T00:34:01;23.90;99.90
85164;DHT22;75530;49.300;6.846;2024-03-25T00:37:01;23.70;99.90
85164;DHT22;75530;49.300;6.846;2024-03-25T00:40:02;23.60;99.90
85164;DHT22;75530;49.300;6.846;2024-03-25T00:43:04;23.50;99.90
85164;DHT22;75530;49.300;6.846;2024-03-25T00:46:04;23.30;99.90
85164;DHT22;75530;49.300;6.846;2024-03-25T00:49:05;23.20;99.90
85164;DHT22;75530;49.300;6.846;2024-03-25T00:52:05;24.30;99.90
85164;DHT22;75530;49.300;6.846;2024-03-25T00:55:06;36.40;99.90
85164;DHT22;75530;49.300;6.846;2024-03-25T00:58:08;36.90;99.90
85164;DHT22;75530;49.300;6.846;2024-03-25T01:01:08;41.70;99.90
85164;DHT22;75530;49.300;6.846;2024-03-25T01:04:09;39.70;99.90
85164;DHT22;75530;49.300;6.846;2024-03-25T01:07:09;38.50;99.90
85164;DHT22;75530;49.300;6.846;2024-03-25T01:10:10;37.70;99.90
85164;DHT22;75530;49.300;6.846;2024-03-25T01:13:10;36.90;99.90
85164;DHT22;75530;49.300;6.846;2024-03-25T01:16:11;36.10;99.90
85164;DHT22;75530;49.300;6.846;2024-03-25T01:19:11;35.30;99.90
85164;DHT22;75530;49.300;6.846;2024-03-25T01:22:11;34.60;99.90
85164;DHT22;75530;49.300;6.846;2024-03-25T01:25:12;33.90;99.90
85164;DHT22;75530;49.300;6.846;2024-03-25T01:28:12;33.20;99.90
85164;DHT22;75530;49.300;6.846;2024-03-25T01:31:13;32.60;99.90
85164;DHT22;75530;49.300;6.846;2024-03-25T01:34:14;32.00;99.90
85164;DHT22;75530;49.300;6.846;2024-03-25T01:37:14;31.40;99.90
85164;DHT22;75530;49.300;6.846;2024-03-25T01:40:15;30.80;99.90
85164;DHT22;75530;49.300;6.846;2024-03-25T01:43:15;30.40;99.90
85164;DHT22;75530;49.300;6.846;2024-03-25T01:46:16;29.90;99.90
85164;DHT22;75530;49.300;6.846;2024-03-25T01:49:17;29.40;99.90
85164;DHT22;75530;49.300;6.846;2024-03-25T01:52:19;29.00;99.90
85164;DHT22;75530;49.300;6.846;2024-03-25T01:55:21;28.60;99.90
85164;DHT22;75530;49.300;6.846;2024-03-25T01:58:21;28.20;99.90
85164;DHT22;75530;49.300;6.846;2024-03-25T02:01:23;27.80;99.90
85164;DHT22;75530;49.300;6.846;2024-03-25T02:04:23;27.50;99.90
85164;DHT22;75530;49.300;6.846;2024-03-25T02:07:24;27.20;99.90
85164;DHT22;75530;49.300;6.846;2024-03-25T02:10:25;26.90;99.90
85164;DHT22;75530;49.300;6.846;2024-03-25T02:13:26;26.50;99.90
85164;DHT22;75530;49.300;6.846;2024-03-25T02:16:26;26.30;99.90
85164;DHT22;75530;49.300;6.846;2024-03-25T02:19:26;26.00;99.90
85164;DHT22;75530;49.300;6.846;2024-03-25T02:22:27;25.80;99.90
85164;DHT22;75530;49.300;6.846;2024-03-25T02:25:28;25.50;99.90
85164;DHT22;75530;49.300;6.846;2024-03-25T02:28:31;25.30;99.90
85164;DHT22;75530;49.300;6.846;2024-03-25T02:31:31;25.10;99.90
85164;DHT22;75530;49.300;6.846;2024-03-25T02:34:32;24.90;99.90
85164;DHT22;75530;49.300;6.846;2024-03-25T02:37:33;24.60;99.90
85164;DHT22;75530;49.300;6.846;2024-03-25T02:40:34;24.50;99.90
85164;DHT22;75530;49.300;6.846;2024-03-25T02:43:35;24.30;99.90
85164;DHT22;75530;49.300;6.846;2024-03-25T02:46:35;31.00;99.90
85164;DHT22;75530;49.300;6.846;2024-03-25T02:49:36;34.20;99.90
85164;DHT22;75530;49.300;6.846;2024-03-25T02:52:36;40.20;99.90
85164;DHT22;75530;49.300;6.846;2024-03-25T02:55:37;40.40;99.90
85164;DHT22;75530;49.300;6.846;2024-03-25T02:58:37;38.80;99.90
85164;DHT22;75530;49.300;6.846;2024-03-25T03:01:37;37.80;99.90
85164;DHT22;75530;49.300;6.846;2024-03-25T03:04:38;37.10;99.90
85164;DHT22;75530;49.300;6.846;2024-03-25T03:07:38;36.30;99.90
85164;DHT22;75530;49.300;6.846;2024-03-25T03:10:39;35.60;99.90
85164;DHT22;75530;49.300;6.846;2024-03-25T03:13:40;34.80;99.90
85164;DHT22;75530;49.300;6.846;2024-03-25T03:16:40;34.10;99.90
85164;DHT22;75530;49.300;6.846;2024-03-25T03:19:40;33.40;99.90
85164;DHT22;75530;49.300;6.846;2024-03-25T03:22:41;32.80;99.90
85164;DHT22;75530;49.300;6.846;2024-03-25T03:25:42;32.20;99.90
85164;DHT22;75530;49.300;6.846;2024-03-25T03:28:43;31.60;99.90
85164;DHT22;75530;49.300;6.846;2024-03-25T03:31:43;31.00;99.90
85164;DHT22;75530;49.300;6.846;2024-03-25T03:34:44;30.50;99.90
85164;DHT22;75530;49.300;6.846;2024-03-25T03:37:44;30.00;99.90
85164;DHT22;75530;49.300;6.846;2024-03-25T03:40:55;29.50;99.90
85164;DHT22;75530;49.300;6.846;2024-03-25T03:43:56;29.10;99.90
85164;DHT22;75530;49.300;6.846;2024-03-25T03:46:56;28.60;99.90
85164;DHT22;75530;49.300;6.846;2024-03-25T03:49:56;28.20;99.90
85164;DHT22;75530;49.300;6.846;2024-03-25T03:52:57;27.90;99.90
85164;DHT22;75530;49.300;6.846;2024-03-25T03:55:58;27.50;99.90
85164;DHT22;75530;49.300;6.846;2024-03-25T03:58:59;27.20;99.90
85164;DHT22;75530;49.300;6.846;2024-03-25T04:01:59;26.90;99.90
85164;DHT22;75530;49.300;6.846;2024-03-25T04:04:59;26.50;99.90
85164;DHT22;75530;49.300;6.846;2024-03-25T04:08:00;26.30;99.90
85164;DHT22;75530;49.300;6.846;2024-03-25T04:11:01;26.00;99.90
85164;DHT22;75530;49.300;6.846;2024-03-25T04:14:02;31.00;99.90
85164;DHT22;75530;49.300;6.846;2024-03-25T04:17:03;34.80;99.90
85164;DHT22;75530;49.300;6.846;2024-03-25T04:20:03;40.90;99.90
85164;DHT22;75530;49.300;6.846;2024-03-25T04:23:10;39.80;99.90
85164;DHT22;75530;49.300;6.846;2024-03-25T04:26:11;38.30;99.90
85164;DHT22;75530;49.300;6.846;2024-03-25T04:29:11;37.30;99.90
85164;DHT22;75530;49.300;6.846;2024-03-25T04:32:12;36.60;99.90
85164;DHT22;75530;49.300;6.846;2024-03-25T04:35:12;35.80;99.90
85164;DHT22;75530;49.300;6.846;2024-03-25T04:38:15;35.10;99.90
85164;DHT22;75530;49.300;6.846;2024-03-25T04:41:15;34.40;99.90
85164;DHT22;75530;49.300;6.846;2024-03-25T04:44:16;33.70;99.90
85164;DHT22;75530;49.300;6.846;2024-03-25T04:47:18;33.00;99.90
85164;DHT22;75530;49.300;6.846;2024-03-25T04:50:18;32.40;99.90
85164;DHT22;75530;49.300;6.846;2024-03-25T04:53:19;31.80;99.90
85164;DHT22;75530;49.300;6.846;2024-03-25T04:56:19;31.20;99.90
85164;DHT22;75530;49.300;6.846;2024-03-25T04:59:20;30.70;99.90
85164;DHT22;75530;49.300;6.846;2024-03-25T05:02:20;30.20;99.90
85164;DHT22;75530;49.300;6.846;2024-03-25T05:05:21;29.70;99.90
85164;DHT22;75530;49.300;6.846;2024-03-25T05:08:21;29.30;99.90
85164;DHT22;75530;49.300;6.846;2024-03-25T05:11:22;28.80;99.90
85164;DHT22;75530;49.300;6.846;2024-03-25T05:14:22;28.40;99.90
85164;DHT22;75530;49.300;6.846;2024-03-25T05:17:23;28.00;99.90
85164;DHT22;75530;49.300;6.846;2024-03-25T05:20:23;27.70;99.90
85164;DHT22;75530;49.300;6.846;2024-03-25T05:23:24;27.30;99.90
85164;DHT22;75530;49.300;6.846;2024-03-25T05:26:24;27.00;99.90
85164;DHT22;75530;49.300;6.846;2024-03-25T05:29:25;26.70;99.90
85164;DHT22;75530;49.300;6.846;2024-03-25T05:32:25;26.50;99.90
85164;DHT22;75530;49.300;6.846;2024-03-25T05:35:26;35.70;99.90
85164;DHT22;75530;49.300;6.846;2024-03-25T05:38:28;38.40;99.90
85164;DHT22;75530;49.300;6.846;2024-03-25T05:41:28;40.40;99.90
85164;DHT22;75530;49.300;6.846;2024-03-25T05:44:29;38.50;99.90
85164;DHT22;75530;49.300;6.846;2024-03-25T05:47:29;37.30;99.90
85164;DHT22;75530;49.300;6.846;2024-03-25T05:50:30;36.50;99.90
85164;DHT22;75530;49.300;6.846;2024-03-25T05:53:30;35.80;99.90
85164;DHT22;75530;49.300;6.846;2024-03-25T05:56:31;35.10;99.90
85164;DHT22;75530;49.300;6.846;2024-03-25T05:59:31;34.40;99.90
85164;DHT22;75530;49.300;6.846;2024-03-25T06:02:32;33.70;99.90
85164;DHT22;75530;49.300;6.846;2024-03-25T06:05:32;33.10;99.90
85164;DHT22;75530;49.300;6.846;2024-03-25T06:08:33;32.40;99.90
85164;DHT22;75530;49.300;6.846;2024-03-25T06:11:33;31.80;99.90
85164;DHT22;75530;49.300;6.846;2024-03-25T06:14:34;31.30;99.90
85164;DHT22;75530;49.300;6.846;2024-03-25T06:17:34;30.80;99.90
85164;DHT22;75530;49.300;6.846;2024-03-25T06:20:34;30.30;99.90
85164;DHT22;75530;49.300;6.846;2024-03-25T06:23:35;29.70;99.90
85164;DHT22;75530;49.300;6.846;2024-03-25T06:26:35;29.30;99.90
85164;DHT22;75530;49.300;6.846;2024-03-25T06:29:36;28.90;99.90
85164;DHT22;75530;49.300;6.846;2024-03-25T06:32:36;28.50;99.90
85164;DHT22;75530;49.300;6.846;2024-03-25T06:35:55;28.10;99.90
85164;DHT22;75530;49.300;6.846;2024-03-25T06:38:56;27.70;99.90
85164;DHT22;75530;49.300;6.846;2024-03-25T06:41:56;27.40;99.90
85164;DHT22;75530;49.300;6.846;2024-03-25T06:44:57;27.10;99.90
85164;DHT22;75530;49.300;6.846;2024-03-25T06:47:57;26.80;99.90
85164;DHT22;75530;49.300;6.846;2024-03-25T06:50:58;26.40;99.90
85164;DHT22;75530;49.300;6.846;2024-03-25T06:53:59;26.20;99.90
85164;DHT22;75530;49.300;6.846;2024-03-25T06:56:59;25.90;99.90
85164;DHT22;75530;49.300;6.846;2024-03-25T07:00:00;25.70;99.90
85164;DHT22;75530;49.300;6.846;2024-03-25T07:03:00;25.40;99.90
85164;DHT22;75530;49.300;6.846;2024-03-25T07:06:01;25.30;99.90
85164;DHT22;75530;49.300;6.846;2024-03-25T07:09:02;25.10;99.90
85164;DHT22;75530;49.300;6.846;2024-03-25T07:12:04;24.80;99.90
85164;DHT22;75530;49.300;6.846;2024-03-25T07:15:04;24.60;99.90
85164;DHT22;75530;49.300;6.846;2024-03-25T07:18:05;24.50;99.90
85164;DHT22;75530;49.300;6.846;2024-03-25T07:21:06;24.30;99.90
85164;DHT22;75530;49.300;6.846;2024-03-25T07:24:06;24.10;99.90
85164;DHT22;75530;49.300;6.846;2024-03-25T07:27:07;24.00;99.90
85164;DHT22;75530;49.300;6.846;2024-03-25T07:30:08;32.80;99.90
85164;DHT22;75530;49.300;6.846;2024-03-25T07:33:08;34.10;99.90
85164;DHT22;75530;49.300;6.846;2024-03-25T07:36:09;40.60;99.90
85164;DHT22;75530;49.300;6.846;2024-03-25T07:39:09;39.80;99.90
85164;DHT22;75530;49.300;6.846;2024-03-25T07:42:11;38.40;99.90
85164;DHT22;75530;49.300;6.846;2024-03-25T07:45:11;37.40;99.90
85164;DHT22;75530;49.300;6.846;2024-03-25T07:48:11;36.60;99.90
85164;DHT22;75530;49.300;6.846;2024-03-25T07:51:12;35.90;99.90
85164;DHT22;75530;49.300;6.846;2024-03-25T07:54:12;35.30;99.90
85164;DHT22;75530;49.300;6.846;2024-03-25T07:57:17;34.70;99.90
85164;DHT22;75530;49.300;6.846;2024-03-25T08:00:17;34.10;99.90
85164;DHT22;75530;49.300;6.846;2024-03-25T08:03:19;33.50;99.90
85164;DHT22;75530;49.300;6.846;2024-03-25T08:06:19;32.90;99.90
85164;DHT22;75530;49.300;6.846;2024-03-25T08:09:21;32.40;99.90
85164;DHT22;75530;49.300;6.846;2024-03-25T08:12:21;31.90;99.90
85164;DHT22;75530;49.300;6.846;2024-03-25T08:15:22;31.50;99.90
85164;DHT22;75530;49.300;6.846;2024-03-25T08:18:22;31.00;99.90
85164;DHT22;75530;49.300;6.846;2024-03-25T08:21:23;30.60;99.90
85164;DHT22;75530;49.300;6.846;2024-03-25T08:24:23;30.10;99.90
85164;DHT22;75530;49.300;6.846;2024-03-25T08:27:24;29.70;99.90
85164;DHT22;75530;49.300;6.846;2024-03-25T08:30:24;29.40;99.90
85164;DHT22;75530;49.300;6.846;2024-03-25T08:33:25;29.00;99.90
85164;DHT22;75530;49.300;6.846;2024-03-25T08:36:25;28.70;99.90
85164;DHT22;75530;49.300;6.846;2024-03-25T08:39:26;28.30;99.90
85164;DHT22;75530;49.300;6.846;2024-03-25T08:42:26;28.00;99.90
85164;DHT22;75530;49.300;6.846;2024-03-25T08:45:26;27.70;99.90
85164;DHT22;75530;49.300;6.846;2024-03-25T08:48:27;27.40;99.90
85164;DHT22;75530;49.300;6.846;2024-03-25T08:51:27;27.20;99.90
85164;DHT22;75530;49.300;6.846;2024-03-25T08:54:28;26.90;99.90
85164;DHT22;75530;49.300;6.846;2024-03-25T08:57:28;26.60;99.90
85164;DHT22;75530;49.300;6.846;2024-03-25T09:00:29;26.40;99.90
85164;DHT22;75530;49.300;6.846;2024-03-25T09:03:29;26.20;99.90
85164;DHT22;75530;49.300;6.846;2024-03-25T09:06:30;25.90;99.90
85164;DHT22;75530;49.300;6.846;2024-03-25T09:09:30;25.70;99.90
85164;DHT22;75530;49.300;6.846;2024-03-25T09:12:49;25.50;99.90
85164;DHT22;75530;49.300;6.846;2024-03-25T09:15:50;25.30;99.90
85164;DHT22;75530;49.300;6.846;2024-03-25T09:18:50;25.10;99.90
85164;DHT22;75530;49.300;6.846;2024-03-25T09:21:50;24.90;99.90
85164;DHT22;75530;49.300;6.846;2024-03-25T09:24:51;24.80;99.90
85164;DHT22;75530;49.300;6.846;2024-03-25T09:27:51;24.60;99.90
85164;DHT22;75530;49.300;6.846;2024-03-25T09:30:52;24.50;99.90
85164;DHT22;75530;49.300;6.846;2024-03-25T09:33:52;24.30;99.90
85164;DHT22;75530;49.300;6.846;2024-03-25T09:36:53;24.20;99.90
85164;DHT22;75530;49.300;6.846;2024-03-25T09:39:53;24.00;99.90
85164;DHT22;75530;49.300;6.846;2024-03-25T09:42:55;23.90;99.90
85164;DHT22;75530;49.300;6.846;2024-03-25T09:45:56;23.80;99.90
85164;DHT22;75530;49.300;6.846;2024-03-25T09:48:59;23.60;99.90
85164;DHT22;75530;49.300;6.846;2024-03-25T09:52:00;23.50;99.90
85164;DHT22;75530;49.300;6.846;2024-03-25T09:55:00;23.40;99.90
85164;DHT22;75530;49.300;6.846;2024-03-25T09:58:01;23.30;99.90
85164;DHT22;75530;49.300;6.846;2024-03-25T10:01:02;23.20;99.90
85164;DHT22;75530;49.300;6.846;2024-03-25T10:04:03;23.10;99.90
85164;DHT22;75530;49.300;6.846;2024-03-25T10:07:03;23.00;99.90
85164;DHT22;75530;49.300;6.846;2024-03-25T10:10:04;22.90;99.90
85164;DHT22;75530;49.300;6.846;2024-03-25T10:13:05;22.90;99.90
85164;DHT22;75530;49.300;6.846;2024-03-25T10:16:06;22.80;99.90
85164;DHT22;75530;49.300;6.846;2024-03-25T10:19:07;22.70;99.90
85164;DHT22;75530;49.300;6.846;2024-03-25T10:22:08;22.60;99.90
85164;DHT22;75530;49.300;6.846;2024-03-25T10:25:22;22.50;99.90
85164;DHT22;75530;49.300;6.846;2024-03-25T10:28:23;22.40;99.90
85164;DHT22;75530;49.300;6.846;2024-03-25T10:31:23;22.40;99.90
85164;DHT22;75530;49.300;6.846;2024-03-25T10:34:23;22.30;99.90
85164;DHT22;75530;49.300;6.846;2024-03-25T10:37:24;22.20;99.90
85164;DHT22;75530;49.300;6.846;2024-03-25T10:40:30;22.20;99.90
85164;DHT22;75530;49.300;6.846;2024-03-25T10:43:30;22.10;99.90
85164;DHT22;75530;49.300;6.846;2024-03-25T10:46:31;22.10;99.90
85164;DHT22;75530;49.300;6.846;2024-03-25T10:49:33;22.00;99.90
85164;DHT22;75530;49.300;6.846;2024-03-25T10:52:34;21.90;99.90
85164;DHT22;75530;49.300;6.846;2024-03-25T10:55:36;21.90;99.90
85164;DHT22;75530;49.300;6.846;2024-03-25T10:58:37;21.80;99.90
85164;DHT22;75530;49.300;6.846;2024-03-25T11:01:38;21.80;99.90
85164;DHT22;75530;49.300;6.846;2024-03-25T11:04:39;21.70;99.90
85164;DHT22;75530;49.300;6.846;2024-03-25T11:07:41;21.70;99.90
85164;DHT22;75530;49.300;6.846;2024-03-25T11:10:43;21.60;99.90
85164;DHT22;75530;49.300;6.846;2024-03-25T11:13:43;21.60;99.90
85164;DHT22;75530;49.300;6.846;2024-03-25T11:16:50;21.50;99.90
85164;DHT22;75530;49.300;6.846;2024-03-25T11:19:51;21.60;99.90
85164;DHT22;75530;49.300;6.846;2024-03-25T11:22:52;25.40;99.90
85164;DHT22;75530;49.300;6.846;2024-03-25T11:25:55;40.60;99.90
85164;DHT22;75530;49.300;6.846;2024-03-25T11:28:57;53.50;99.90
85164;DHT22;75530;49.300;6.846;2024-03-25T11:31:58;55.80;99.90
85164;DHT22;75530;49.300;6.846;2024-03-25T11:35:00;53.20;99.90
85164;DHT22;75530;49.300;6.846;2024-03-25T11:38:00;50.90;99.90
85164;DHT22;75530;49.300;6.846;2024-03-25T11:41:01;54.60;99.90
85164;DHT22;75530;49.300;6.846;2024-03-25T11:44:01;56.50;99.90
85164;DHT22;75530;49.300;6.846;2024-03-25T11:47:02;54.40;99.90
85164;DHT22;75530;49.300;6.846;2024-03-25T11:50:07;51.80;99.90
85164;DHT22;75530;49.300;6.846;2024-03-25T11:53:07;52.70;99.90
85164;DHT22;75530;49.300;6.846;2024-03-25T11:56:07;56.80;99.90
85164;DHT22;75530;49.300;6.846;2024-03-25T11:59:08;56.10;99.90
85164;DHT22;75530;49.300;6.846;2024-03-25T12:02:09;54.20;99.90
85164;DHT22;75530;49.300;6.846;2024-03-25T12:05:10;44.20;99.90
85164;DHT22;75530;49.300;6.846;2024-03-25T12:08:11;41.20;99.90
85164;DHT22;75530;49.300;6.846;2024-03-25T12:11:12;40.00;99.90
85164;DHT22;75530;49.300;6.846;2024-03-25T12:14:19;39.30;99.90
85164;DHT22;75530;49.300;6.846;2024-03-25T12:17:20;38.70;99.90
85164;DHT22;75530;49.300;6.846;2024-03-25T12:20:20;38.10;99.90
85164;DHT22;75530;49.300;6.846;2024-03-25T12:23:21;37.50;99.90
85164;DHT22;75530;49.300;6.846;2024-03-25T12:26:21;36.90;99.90
85164;DHT22;75530;49.300;6.846;2024-03-25T12:29:22;36.30;99.90
85164;DHT22;75530;49.300;6.846;2024-03-25T12:32:30;35.70;99.90
85164;DHT22;75530;49.300;6.846;2024-03-25T12:35:30;35.20;99.90
85164;DHT22;75530;49.300;6.846;2024-03-25T12:38:35;34.70;99.90
85164;DHT22;75530;49.300;6.846;2024-03-25T12:41:35;34.20;99.90
85164;DHT22;75530;49.300;6.846;2024-03-25T12:44:36;33.70;99.90
85164;DHT22;75530;49.300;6.846;2024-03-25T12:47:36;33.20;99.90
85164;DHT22;75530;49.300;6.846;2024-03-25T12:50:37;32.80;99.90
85164;DHT22;75530;49.300;6.846;2024-03-25T12:53:37;32.30;99.90
85164;DHT22;75530;49.300;6.846;2024-03-25T12:56:38;31.90;99.90
85164;DHT22;75530;49.300;6.846;2024-03-25T12:59:38;31.50;99.90
85164;DHT22;75530;49.300;6.846;2024-03-25T13:02:39;31.10;99.90
85164;DHT22;75530;49.300;6.846;2024-03-25T13:05:40;30.80;99.90
85164;DHT22;75530;49.300;6.846;2024-03-25T13:08:40;30.40;99.90
85164;DHT22;75530;49.300;6.846;2024-03-25T13:11:41;30.10;99.90
85164;DHT22;75530;49.300;6.846;2024-03-25T13:14:41;29.80;99.90
85164;DHT22;75530;49.300;6.846;2024-03-25T13:17:42;29.40;99.90
85164;DHT22;75530;49.300;6.846;2024-03-25T13:20:43;29.10;99.90
85164;DHT22;75530;49.300;6.846;2024-03-25T13:23:44;28.90;99.90
85164;DHT22;75530;49.300;6.846;2024-03-25T13:26:44;28.60;99.90
85164;DHT22;75530;49.300;6.846;2024-03-25T13:29:45;28.30;99.90
85164;DHT22;75530;49.300;6.846;2024-03-25T13:32:45;28.00;99.90
85164;DHT22;75530;49.300;6.846;2024-03-25T13:35:46;27.80;99.90
85164;DHT22;75530;49.300;6.846;2024-03-25T13:38:47;27.50;99.90
85164;DHT22;75530;49.300;6.846;2024-03-25T13:41:48;27.30;99.90
85164;DHT22;75530;49.300;6.846;2024-03-25T13:44:48;27.10;99.90
85164;DHT22;75530;49.300;6.846;2024-03-25T13:47:48;26.90;99.90
85164;DHT22;75530;49.300;6.846;2024-03-25T13:50:49;26.60;99.90
85164;DHT22;75530;49.300;6.846;2024-03-25T13:53:49;26.40;99.90
85164;DHT22;75530;49.300;6.846;2024-03-25T13:56:50;26.20;99.90
85164;DHT22;75530;49.300;6.846;2024-03-25T13:59:50;26.00;99.90
85164;DHT22;75530;49.300;6.846;2024-03-25T14:02:51;25.80;99.90
85164;DHT22;75530;49.300;6.846;2024-03-25T14:05:51;25.60;99.90
85164;DHT22;75530;49.300;6.846;2024-03-25T14:08:52;25.30;99.90
85164;DHT22;75530;49.300;6.846;2024-03-25T14:11:52;25.20;99.90
85164;DHT22;75530;49.300;6.846;2024-03-25T14:14:53;25.00;99.90
85164;DHT22;75530;49.300;6.846;2024-03-25T14:17:53;24.80;99.90
85164;DHT22;75530;49.300;6.846;2024-03-25T14:20:54;24.60;99.90
85164;DHT22;75530;49.300;6.846;2024-03-25T14:23:55;24.40;99.90
85164;DHT22;75530;49.300;6.846;2024-03-25T14:26:55;24.30;99.90
85164;DHT22;75530;49.300;6.846;2024-03-25T14:29:55;24.10;99.90
85164;DHT22;75530;49.300;6.846;2024-03-25T14:32:56;24.00;99.90
85164;DHT22;75530;49.300;6.846;2024-03-25T14:35:56;23.80;99.90
85164;DHT22;75530;49.300;6.846;2024-03-25T14:38:57;23.70;99.90
85164;DHT22;75530;49.300;6.846;2024-03-25T14:41:57;23.60;99.90
85164;DHT22;75530;49.300;6.846;2024-03-25T14:44:58;23.50;99.90
85164;DHT22;75530;49.300;6.846;2024-03-25T14:47:58;23.40;99.90
85164;DHT22;75530;49.300;6.846;2024-03-25T14:50:59;23.40;99.90
85164;DHT22;75530;49.300;6.846;2024-03-25T14:54:00;23.30;99.90
85164;DHT22;75530;49.300;6.846;2024-03-25T14:57:00;23.20;99.90
85164;DHT22;75530;49.300;6.846;2024-03-25T15:00:01;23.10;99.90
85164;DHT22;75530;49.300;6.846;2024-03-25T15:03:01;23.10;99.90
85164;DHT22;75530;49.300;6.846;2024-03-25T15:06:02;23.10;99.90
85164;DHT22;75530;49.300;6.846;2024-03-25T15:09:04;23.10;99.90
85164;DHT22;75530;49.300;6.846;2024-03-25T15:12:04;23.10;99.90
85164;DHT22;75530;49.300;6.846;2024-03-25T15:15:05;23.00;99.90
85164;DHT22;75530;49.300;6.846;2024-03-25T15:18:08;23.00;99.90
85164;DHT22;75530;49.300;6.846;2024-03-25T15:21:08;23.00;99.90
85164;DHT22;75530;49.300;6.846;2024-03-25T15:24:09;23.00;99.90
85164;DHT22;75530;49.300;6.846;2024-03-25T15:27:09;23.10;99.90
85164;DHT22;75530;49.300;6.846;2024-03-25T15:30:09;23.10;99.90
85164;DHT22;75530;49.300;6.846;2024-03-25T15:33:10;23.10;99.90
85164;DHT22;75530;49.300;6.846;2024-03-25T15:36:10;23.10;99.90
85164;DHT22;75530;49.300;6.846;2024-03-25T15:39:11;23.10;99.90
85164;DHT22;75530;49.300;6.846;2024-03-25T15:42:11;23.10;99.90
85164;DHT22;75530;49.300;6.846;2024-03-25T15:45:12;23.10;99.90
85164;DHT22;75530;49.300;6.846;2024-03-25T15:48:12;23.00;99.90
85164;DHT22;75530;49.300;6.846;2024-03-25T15:51:12;22.40;99.90
85164;DHT22;75530;49.300;6.846;2024-03-25T15:54:13;22.20;99.90
85164;DHT22;75530;49.300;6.846;2024-03-25T15:57:13;22.10;99.90
85164;DHT22;75530;49.300;6.846;2024-03-25T16:00:14;22.00;99.90
85164;DHT22;75530;49.300;6.846;2024-03-25T16:03:14;21.90;99.90
85164;DHT22;75530;49.300;6.846;2024-03-25T16:06:15;21.90;99.90
85164;DHT22;75530;49.300;6.846;2024-03-25T16:09:16;21.80;99.90
85164;DHT22;75530;49.300;6.846;2024-03-25T16:12:16;21.80;99.90
85164;DHT22;75530;49.300;6.846;2024-03-25T16:15:17;21.70;99.90
85164;DHT22;75530;49.300;6.846;2024-03-25T16:18:17;21.70;99.90
85164;DHT22;75530;49.300;6.846;2024-03-25T16:21:18;21.60;99.90
85164;DHT22;75530;49.300;6.846;2024-03-25T16:24:23;21.60;99.90
85164;DHT22;75530;49.300;6.846;2024-03-25T16:27:23;21.50;99.90
85164;DHT22;75530;49.300;6.846;2024-03-25T16:30:24;21.50;99.90
85164;DHT22;75530;49.300;6.846;2024-03-25T16:33:24;21.50;99.90
85164;DHT22;75530;49.300;6.846;2024-03-25T16:36:25;21.40;99.90
85164;DHT22;75530;49.300;6.846;2024-03-25T16:39:25;21.40;99.90
85164;DHT22;75530;49.300;6.846;2024-03-25T16:42:26;21.30;99.90
85164;DHT22;75530;49.300;6.846;2024-03-25T16:45:26;21.30;99.90
85164;DHT22;75530;49.300;6.846;2024-03-25T16:48:27;21.30;99.90
85164;DHT22;75530;49.300;6.846;2024-03-25T16:51:27;21.30;99.90
85164;DHT22;75530;49.300;6.846;2024-03-25T16:54:28;21.20;99.90
85164;DHT22;75530;49.300;6.846;2024-03-25T16:57:29;21.20;99.90
85164;DHT22;75530;49.300;6.846;2024-03-25T17:00:30;21.20;99.90
85164;DHT22;75530;49.300;6.846;2024-03-25T17:03:30;21.10;99.90
85164;DHT22;75530;49.300;6.846;2024-03-25T17:06:30;21.10;99.90
85164;DHT22;75530;49.300;6.846;2024-03-25T17:09:31;21.10;99.90
85164;DHT22;75530;49.300;6.846;2024-03-25T17:12:34;21.10;99.90
85164;DHT22;75530;49.300;6.846;2024-03-25T17:15:35;21.00;99.90
85164;DHT22;75530;49.300;6.846;2024-03-25T17:18:35;21.00;99.90
85164;DHT22;75530;49.300;6.846;2024-03-25T17:21:36;21.00;99.90
85164;DHT22;75530;49.300;6.846;2024-03-25T17:24:40;20.90;99.90
85164;DHT22;75530;49.300;6.846;2024-03-25T17:27:40;20.90;99.90
85164;DHT22;75530;49.300;6.846;2024-03-25T17:30:41;20.90;99.90
85164;DHT22;75530;49.300;6.846;2024-03-25T17:33:44;20.90;99.90
85164;DHT22;75530;49.300;6.846;2024-03-25T17:36:44;20.80;99.90
85164;DHT22;75530;49.300;6.846;2024-03-25T17:39:45;20.80;99.90
85164;DHT22;75530;49.300;6.846;2024-03-25T17:42:45;20.80;99.90
85164;DHT22;75530;49.300;6.846;2024-03-25T17:45:46;20.80;99.90
85164;DHT22;75530;49.300;6.846;2024-03-25T17:48:46;20.80;99.90
85164;DHT22;75530;49.300;6.846;2024-03-25T17:51:51;20.70;99.90
85164;DHT22;75530;49.300;6.846;2024-03-25T17:54:51;20.70;99.90
85164;DHT22;75530;49.300;6.846;2024-03-25T17:57:51;20.70;99.90
85164;DHT22;75530;49.300;6.846;2024-03-25T18:00:52;20.70;99.90
85164;DHT22;75530;49.300;6.846;2024-03-25T18:03:53;20.60;99.90
85164;DHT22;75530;49.300;6.846;2024-03-25T18:06:53;20.60;99.90
85164;DHT22;75530;49.300;6.846;2024-03-25T18:09:54;20.60;99.90
85164;DHT22;75530;49.300;6.846;2024-03-25T18:12:57;22.10;99.90
85164;DHT22;75530;49.300;6.846;2024-03-25T18:15:57;33.40;99.90
85164;DHT22;75530;49.300;6.846;2024-03-25T18:18:57;35.40;99.90
85164;DHT22;75530;49.300;6.846;2024-03-25T18:21:58;41.00;99.90
85164;DHT22;75530;49.300;6.846;2024-03-25T18:24:58;40.70;99.90
85164;DHT22;75530;49.300;6.846;2024-03-25T18:27:59;39.40;99.90
85164;DHT22;75530;49.300;6.846;2024-03-25T18:31:00;38.60;99.90
85164;DHT22;75530;49.300;6.846;2024-03-25T18:34:01;37.80;99.90
85164;DHT22;75530;49.300;6.846;2024-03-25T18:37:03;37.10;99.90
85164;DHT22;75530;49.300;6.846;2024-03-25T18:40:03;36.30;99.90
85164;DHT22;75530;49.300;6.846;2024-03-25T18:43:13;35.60;99.90
85164;DHT22;75530;49.300;6.846;2024-03-25T18:46:13;34.80;99.90
85164;DHT22;75530;49.300;6.846;2024-03-25T18:49:14;34.20;99.90
85164;DHT22;75530;49.300;6.846;2024-03-25T18:52:14;33.60;99.90
85164;DHT22;75530;49.300;6.846;2024-03-25T18:55:15;33.00;99.90
85164;DHT22;75530;49.300;6.846;2024-03-25T18:58:15;32.40;99.90
85164;DHT22;75530;49.300;6.846;2024-03-25T19:01:16;31.80;99.90